Time;durP1;ratioP1;P1;durP2;ratioP2;P2;SDS_P1;SDS_P2;PMS_P1;PMS_P2;Temp;Humidity;BMP_temperature;BMP_pressure;BME280_temperature;BME280_humidity;BME280_pressure;Samples;Min_cycle;Max_cycle;Signal;HPM_P1;HPM_P2
2023/08/30 00:00:41;;;;;;;0.22;0.22;;;;;;;18.27;60.17;98543.66;5312753;26;20680;-94
2023/08/30 00:04:18;;;;;;;;;;;;;;;;;;;;;
2023/08/30 00:06:46;;;;;;;0.60;0.40;;;;;;;18.47;60.19;98534.94;5345504;26;20104;-94
2023/08/30 00:09:19;;;;;;;0.65;0.40;;;;;;;18.51;60.19;98544.25;5311866;26;20770;-95
2023/08/30 00:11:45;;;;;;;0.55;0.55;;;;;;;18.72;60.19;98539.03;5314893;26;20020;-93
2023/08/30 00:14:10;;;;;;;0.20;0.20;;;;;;;18.57;60.19;98549.00;5311872;26;20058;-93
2023/08/30 00:16:36;;;;;;;0.98;0.98;;;;;;;18.61;60.19;98553.06;5311610;26;20107;-92
2023/08/30 00:19:01;;;;;;;0.80;0.80;;;;;;;18.65;60.19;98558.94;5311555;26;20056;-93
2023/08/30 00:21:27;;;;;;;0.93;0.93;;;;;;;18.60;60.18;98553.19;5311815;26;20052;-93
2023/08/30 00:23:52;;;;;;;1.20;0.60;;;;;;;18.45;60.18;98555.28;5311824;26;20044;-93
2023/08/30 00:26:20;;;;;;;0.93;0.40;;;;;;;18.32;60.18;98559.94;5311731;26;20177;-93
2023/08/30 00:28:48;;;;;;;0.88;0.80;;;;;;;18.33;60.18;98564.22;5312764;26;20028;-93
2023/08/30 00:31:16;;;;;;;0.52;0.52;;;;;;;18.33;60.17;98565.06;5312599;26;20115;-95
2023/08/30 00:33:42;;;;;;;0.40;0.40;;;;;;;18.44;60.18;98558.06;5312395;26;20020;-94
2023/08/30 00:36:10;;;;;;;0.62;0.55;;;;;;;18.55;60.19;98561.47;5312473;26;20083;-95
2023/08/30 00:38:35;;;;;;;0.95;0.75;;;;;;;18.46;60.18;98564.06;5313710;26;20078;-94
2023/08/30 00:41:01;;;;;;;1.25;0.93;;;;;;;18.61;60.18;98563.59;5315312;26;20092;-93
2023/08/30 00:43:26;;;;;;;0.47;0.47;;;;;;;18.70;60.20;98562.03;5317049;26;20075;-94
2023/08/30 00:45:52;;;;;;;2.35;0.90;;;;;;;18.60;60.18;98556.66;5328573;26;20041;-94
2023/08/30 00:48:18;;;;;;;2.55;0.73;;;;;;;18.42;60.18;98560.81;5317165;26;20401;-93
2023/08/30 00:50:43;;;;;;;1.23;0.73;;;;;;;18.70;60.20;98564.69;5312344;26;20059;-94
2023/08/30 00:53:12;;;;;;;0.85;0.85;;;;;;;18.55;60.19;98566.75;5312212;26;20426;-93
2023/08/30 00:55:38;;;;;;;1.08;1.08;;;;;;;18.66;60.19;98566.72;5313088;26;20056;-95
2023/08/30 00:58:03;;;;;;;0.98;0.98;;;;;;;18.77;60.21;98571.09;5312262;26;20097;-92
2023/08/30 01:00:32;;;;;;;1.35;0.85;;;;;;;18.69;60.20;98574.38;5312057;26;20060;-92
2023/08/30 01:02:58;;;;;;;0.25;0.25;;;;;;;18.64;60.20;98576.53;5312314;26;20559;-92
2023/08/30 01:05:24;;;;;;;0.50;0.40;;;;;;;18.67;60.19;98573.66;5312067;26;20079;-93
2023/08/30 01:07:52;;;;;;;3.75;0.57;;;;;;;18.74;60.20;98566.09;5331784;26;20073;-90
2023/08/30 01:10:18;;;;;;;3.15;0.90;;;;;;;18.74;60.20;98581.91;5312019;26;20048;-92
2023/08/30 01:12:47;;;;;;;0.77;0.77;;;;;;;18.72;60.20;98575.94;5330693;26;20047;-91
2023/08/30 01:15:16;;;;;;;0.17;0.17;;;;;;;18.73;60.19;98579.41;5312428;26;20462;-94
2023/08/30 01:17:47;;;;;;;1.33;1.30;;;;;;;18.74;60.20;98576.63;5312532;26;20068;-92
2023/08/30 01:20:16;;;;;;;;;;;;;;;18.97;60.21;98577.31;5313373;26;20725;-93
2023/08/30 01:23:10;;;;;;;2.50;1.42;;;;;;;18.93;60.21;98565.38;5349732;26;19963;-93
2023/08/30 01:25:40;;;;;;;1.30;0.40;;;;;;;18.78;60.21;98556.12;5332458;26;20060;-92
2023/08/30 01:28:06;;;;;;;;;;;;;;;18.69;60.20;98555.94;5334482;26;20114;-92
2023/08/30 01:30:37;;;;;;;1.83;1.73;;;;;;;18.64;60.20;98546.72;5331185;26;19971;-93
2023/08/30 01:33:03;;;;;;;2.45;1.70;;;;;;;18.61;60.19;98545.16;5313743;26;20123;-93
2023/08/30 01:35:32;;;;;;;0.30;0.30;;;;;;;18.64;60.19;98555.47;5313030;26;20064;-93
2023/08/30 01:37:58;;;;;;;1.27;1.17;;;;;;;18.59;60.18;98554.97;5313817;26;20113;-92
2023/08/30 01:40:56;;;;;;;;;;;;;;;;;;;;;
2023/08/30 01:43:44;;;;;;;1.37;1.27;;;;;;;18.53;60.18;98547.59;5350482;26;35406;-94
2023/08/30 01:47:03;;;;;;;;;;;;;;;;;;;;;
2023/08/30 01:49:44;;;;;;;;;;;;;;;;;;;;;
2023/08/30 01:53:00;;;;;;;;;;;;;;;;;;;;;
2023/08/30 02:02:42;;;;;;;0.47;0.47;;;;;;;18.31;60.17;98555.63;5119272;27;20100;-92
2023/08/30 02:05:09;;;;;;;0.70;0.70;;;;;;;18.18;60.17;98547.03;5187640;27;20091;-93
2023/08/30 02:08:09;;;;;;;1.55;1.35;;;;;;;18.22;60.16;98557.22;5323827;26;20097;-93
2023/08/30 02:10:35;;;;;;;0.50;0.50;;;;;;;18.40;60.17;98557.47;5273664;26;20067;-93
2023/08/30 02:13:02;;;;;;;1.30;0.75;;;;;;;18.46;60.18;98550.88;5313990;26;20071;-94
2023/08/30 02:15:27;;;;;;;1.73;0.62;;;;;;;18.52;60.19;98555.63;5315550;26;20048;-94
2023/08/30 02:17:53;;;;;;;0.68;0.68;;;;;;;18.48;60.19;98565.59;5315777;26;20405;-93
2023/08/30 02:20:22;;;;;;;3.22;1.48;;;;;;;18.46;60.18;98550.88;5317129;26;20060;-93
2023/08/30 02:22:50;;;;;;;2.37;2.15;;;;;;;18.53;60.18;98554.69;5328824;26;20046;-95
2023/08/30 02:25:25;;;;;;;0.60;0.60;;;;;;;18.56;60.19;98552.63;5315132;26;20523;-94
2023/08/30 02:27:50;;;;;;;0.32;0.32;;;;;;;18.59;60.18;98565.53;5315620;26;20098;-93
2023/08/30 02:30:18;;;;;;;1.35;1.33;;;;;;;18.54;60.18;98559.81;5312785;26;20052;-94
2023/08/30 02:32:44;;;;;;;0.40;0.25;;;;;;;18.63;60.19;98563.50;5312727;26;20047;-92
2023/08/30 02:35:09;;;;;;;1.48;1.25;;;;;;;18.73;60.20;98572.31;5312170;26;20056;-92
2023/08/30 02:37:35;;;;;;;1.12;1.12;;;;;;;18.69;60.20;98577.03;5312689;26;20064;-91
2023/08/30 02:40:00;;;;;;;2.35;1.40;;;;;;;18.81;60.20;98579.56;5312898;26;20078;-92
2023/08/30 02:42:26;;;;;;;3.40;0.68;;;;;;;18.85;60.19;98570.44;5313063;26;20125;-92
2023/08/30 02:44:52;;;;;;;2.05;1.85;;;;;;;18.77;60.19;98570.25;5315695;26;20092;-94
2023/08/30 02:47:18;;;;;;;0.55;0.55;;;;;;;18.79;60.20;98574.44;5313155;26;20126;-93
2023/08/30 02:49:43;;;;;;;1.75;0.95;;;;;;;18.59;60.18;98573.44;5312490;26;20347;-92
2023/08/30 02:52:09;;;;;;;1.95;1.12;;;;;;;18.64;60.19;98573.91;5312467;26;20069;-92
2023/08/30 02:54:34;;;;;;;0.55;0.55;;;;;;;18.63;60.19;98569.59;5312485;26;20066;-93
2023/08/30 02:57:00;;;;;;;1.20;1.10;;;;;;;18.75;60.20;98569.56;5330705;26;20337;-93
2023/08/30 02:59:25;;;;;;;1.48;1.02;;;;;;;18.70;60.19;98568.16;5312722;26;20063;-92
2023/08/30 03:01:53;;;;;;;0.68;0.45;;;;;;;18.83;60.20;98575.84;5312610;26;20153;-92
2023/08/30 03:04:18;;;;;;;1.45;0.77;;;;;;;18.85;60.19;98573.06;5315843;26;20440;-91
2023/08/30 03:06:44;;;;;;;0.57;0.57;;;;;;;18.86;60.20;98570.31;5312478;26;20059;-92
2023/08/30 03:09:10;;;;;;;0.93;0.93;;;;;;;18.87;60.20;98579.88;5312623;26;20060;-92
2023/08/30 03:11:35;;;;;;;1.00;0.80;;;;;;;18.93;60.21;98576.75;5312513;26;20075;-93
2023/08/30 03:14:00;;;;;;;0.30;0.30;;;;;;;18.91;60.19;98567.28;5312629;26;20112;-93
2023/08/30 03:16:29;;;;;;;0.65;0.65;;;;;;;18.91;60.20;98572.53;5312470;26;20064;-92
2023/08/30 03:18:54;;;;;;;0.32;0.32;;;;;;;18.90;60.20;98558.53;5312459;26;20069;-93
2023/08/30 03:21:19;;;;;;;5.25;1.95;;;;;;;19.03;60.21;98566.25;5312292;26;20076;-93
2023/08/30 03:23:45;;;;;;;0.80;0.80;;;;;;;18.94;60.21;98567.03;5312661;26;20549;-93
2023/08/30 03:26:14;;;;;;;3.62;1.25;;;;;;;18.96;60.20;98570.38;5314657;26;20052;-93
2023/08/30 03:28:40;;;;;;;0.60;0.60;;;;;;;18.91;60.20;98572.53;5312365;26;20090;-94
2023/08/30 03:31:15;;;;;;;0.45;0.45;;;;;;;18.86;60.20;98565.03;5312251;26;20052;-93
2023/08/30 03:33:41;;;;;;;3.47;3.17;;;;;;;18.86;60.20;98569.47;5312064;26;20055;-92
2023/08/30 03:36:09;;;;;;;0.30;0.30;;;;;;;18.75;60.19;98573.03;5311905;26;20059;-92
2023/08/30 03:38:34;;;;;;;5.57;1.25;;;;;;;18.68;60.19;98572.69;5312333;26;20108;-93
2023/08/30 03:40:59;;;;;;;0.93;0.75;;;;;;;18.73;60.19;98569.69;5312103;26;20052;-94
2023/08/30 03:43:27;;;;;;;0.20;0.20;;;;;;;18.78;60.19;98572.75;5312384;26;20097;-95
2023/08/30 03:45:53;;;;;;;1.30;0.85;;;;;;;18.76;60.20;98579.12;5332263;26;20019;-92
2023/08/30 03:48:18;;;;;;;0.60;0.57;;;;;;;18.60;60.18;98579.53;5313171;26;20125;-92
2023/08/30 03:50:44;;;;;;;0.85;0.85;;;;;;;18.56;60.19;98580.78;5311789;26;20063;-92
2023/08/30 03:53:09;;;;;;;0.22;0.22;;;;;;;18.73;60.20;98582.87;5312032;26;20097;-91
2023/08/30 03:55:35;;;;;;;1.35;1.25;;;;;;;18.84;60.20;98574.03;5311824;26;20055;-95
2023/08/30 03:58:00;;;;;;;0.35;0.35;;;;;;;18.75;60.20;98577.47;5312087;26;20061;-93
2023/08/30 04:00:26;;;;;;;0.52;0.52;;;;;;;18.71;60.20;98582.16;5300921;26;112093;-93
2023/08/30 04:02:51;;;;;;;1.37;1.17;;;;;;;18.51;60.18;98586.44;5300147;26;20051;-92
2023/08/30 04:05:17;;;;;;;0.98;0.32;;;;;;;18.60;60.18;98585.66;5312105;26;20099;-93
2023/08/30 04:07:44;;;;;;;1.15;1.15;;;;;;;18.60;60.19;98579.53;5312109;26;20056;-93
2023/08/30 04:10:16;;;;;;;0.82;0.82;;;;;;;18.57;60.19;98591.19;5312449;26;20060;-94
2023/08/30 04:12:41;;;;;;;0.93;0.60;;;;;;;18.66;60.19;98589.59;5312482;26;20051;-94
2023/08/30 04:15:12;;;;;;;1.10;1.00;;;;;;;18.78;60.19;98582.47;5312407;26;20100;-93
2023/08/30 04:18:33;;;;;;;6.12;0.52;;;;;;;18.81;60.20;98598.03;5314170;26;20056;-94
2023/08/30 04:21:13;;;;;;;;;;;;;;;;;;;;;
2023/08/30 04:24:08;;;;;;;1.55;0.80;;;;;;;18.76;60.19;98608.13;5333806;26;37593;-94
2023/08/30 04:27:37;;;;;;;;;;;;;;;;;;;;;
2023/08/30 04:29:52;;;;;;;0.93;0.93;;;;;;;18.81;60.20;98609.41;5269241;26;20053;-92
2023/08/30 04:32:18;;;;;;;16.23;1.52;;;;;;;18.86;60.20;98604.59;5312556;26;20696;-92
2023/08/30 04:34:43;;;;;;;0.00;0.00;;;;;;;18.66;60.19;98600.97;5330528;26;20047;-91
2023/08/30 04:37:08;;;;;;;2.70;1.42;;;;;;;18.79;60.20;98613.16;5312559;26;20080;-93
2023/08/30 04:39:34;;;;;;;0.62;0.52;;;;;;;18.68;60.19;98627.19;5312411;26;20056;-92
2023/08/30 04:42:00;;;;;;;3.30;1.27;;;;;;;18.77;60.19;98620.34;5333796;26;20051;-91
2023/08/30 04:44:27;;;;;;;0.50;0.50;;;;;;;18.91;60.20;98615.56;5312526;26;20068;-92
2023/08/30 04:46:53;;;;;;;0.60;0.60;;;;;;;19.03;60.22;98619.00;5312328;26;20070;-92
2023/08/30 04:49:19;;;;;;;0.88;0.88;;;;;;;18.99;60.20;98617.59;5313248;26;20064;-91
2023/08/30 04:51:44;;;;;;;0.55;0.55;;;;;;;19.03;60.21;98608.44;5313266;26;20324;-92
2023/08/30 04:54:10;;;;;;;0.47;0.47;;;;;;;18.95;60.21;98605.63;5311352;26;22439;-91
2023/08/30 04:56:35;;;;;;;1.62;1.52;;;;;;;18.91;60.20;98605.03;5312379;26;20064;-91
2023/08/30 04:59:03;;;;;;;1.10;1.00;;;;;;;19.02;60.21;98606.78;5331628;26;20059;-91
2023/08/30 05:01:29;;;;;;;0.65;0.65;;;;;;;19.05;60.21;98600.41;5316796;26;20087;-91
2023/08/30 05:03:55;;;;;;;2.42;1.65;;;;;;;19.04;60.21;98604.84;5313122;26;20065;-91
2023/08/30 05:06:20;;;;;;;0.50;0.40;;;;;;;18.98;60.20;98610.62;5313490;26;20047;-91
2023/08/30 05:08:45;;;;;;;0.50;0.50;;;;;;;18.94;60.21;98599.53;5311706;26;22812;-89
2023/08/30 05:11:11;;;;;;;0.45;0.45;;;;;;;18.99;60.20;98607.03;5311899;26;20063;-92
2023/08/30 05:13:36;;;;;;;0.60;0.60;;;;;;;18.88;60.20;98612.38;5312360;26;20059;-91
2023/08/30 05:16:03;;;;;;;0.88;0.88;;;;;;;18.92;60.21;98606.69;5312058;26;20388;-91
2023/08/30 05:18:28;;;;;;;0.25;0.25;;;;;;;18.80;60.20;98617.47;5312325;26;20063;-91
2023/08/30 05:20:53;;;;;;;0.30;0.30;;;;;;;18.81;60.20;98621.75;5314740;26;20086;-91
2023/08/30 05:23:19;;;;;;;0.20;0.20;;;;;;;18.83;60.20;98610.12;5312102;26;20091;-91
2023/08/30 05:25:44;;;;;;;1.58;0.55;;;;;;;19.05;60.21;98610.94;5311550;26;20035;-90
2023/08/30 05:28:10;;;;;;;0.82;0.82;;;;;;;18.94;60.21;98614.50;5311258;26;20078;-91
2023/08/30 05:30:35;;;;;;;1.92;1.58;;;;;;;19.04;60.21;98617.19;5310829;26;20099;-91
2023/08/30 05:33:00;;;;;;;0.10;0.10;;;;;;;19.09;60.21;98622.91;5310962;26;20059;-92
2023/08/30 05:35:26;;;;;;;10.95;1.40;;;;;;;19.15;60.21;98619.75;5311183;26;20096;-91
2023/08/30 05:37:51;;;;;;;0.65;0.65;;;;;;;19.28;60.22;98623.00;5310723;26;20120;-91
2023/08/30 05:40:17;;;;;;;0.57;0.35;;;;;;;19.23;60.21;98628.69;5314054;26;20078;-93
2023/08/30 05:42:43;;;;;;;1.08;1.02;;;;;;;19.27;60.22;98632.72;5311601;26;20096;-91
2023/08/30 05:45:09;;;;;;;0.47;0.47;;;;;;;19.14;60.21;98632.09;5310762;26;20079;-91
2023/08/30 05:47:34;;;;;;;2.58;1.20;;;;;;;19.11;60.21;98636.78;5329199;26;20128;-91
2023/08/30 05:50:00;;;;;;;0.90;0.90;;;;;;;19.12;60.21;98636.66;5311049;26;20102;-92
2023/08/30 05:52:25;;;;;;;3.05;0.77;;;;;;;19.09;60.22;98644.84;5311193;26;20368;-91
2023/08/30 05:54:51;;;;;;;4.28;1.33;;;;;;;19.03;60.21;98629.53;5310751;26;20074;-91
2023/08/30 05:57:16;;;;;;;1.25;0.95;;;;;;;19.09;60.22;98634.28;5310822;26;20060;-91
2023/08/30 05:59:42;;;;;;;0.57;0.40;;;;;;;19.06;60.21;98631.09;5311135;26;20073;-92
2023/08/30 06:02:07;;;;;;;1.85;1.00;;;;;;;19.30;60.22;98629.81;5310982;26;20079;-93
2023/08/30 06:04:33;;;;;;;0.45;0.45;;;;;;;19.45;60.23;98624.22;5311393;26;20547;-92
2023/08/30 06:06:58;;;;;;;0.03;0.03;;;;;;;19.55;60.23;98625.94;5311437;26;20053;-92
2023/08/30 06:09:23;;;;;;;0.88;0.85;;;;;;;19.67;60.24;98631.16;5312570;26;20448;-91
2023/08/30 06:11:49;;;;;;;0.50;0.50;;;;;;;19.67;60.24;98636.44;5314954;26;20448;-91
2023/08/30 06:14:14;;;;;;;0.40;0.40;;;;;;;19.56;60.24;98635.53;5334678;26;20345;-91
2023/08/30 06:16:44;;;;;;;0.75;0.75;;;;;;;19.49;60.23;98637.00;5313810;26;20445;-91
2023/08/30 06:19:10;;;;;;;1.45;1.17;;;;;;;19.53;60.23;98649.00;5313132;26;20478;-90
2023/08/30 06:21:36;;;;;;;1.23;1.12;;;;;;;19.53;60.23;98648.12;5311591;26;20064;-91
2023/08/30 06:24:01;;;;;;;0.20;0.20;;;;;;;19.59;60.24;98652.91;5311910;26;20065;-90
2023/08/30 06:26:26;;;;;;;0.40;0.40;;;;;;;19.72;60.25;98656.16;5330372;26;20107;-92
2023/08/30 06:28:52;;;;;;;0.70;0.70;;;;;;;19.79;60.25;98653.81;5312163;26;20463;-91
2023/08/30 06:31:18;;;;;;;1.50;1.25;;;;;;;19.72;60.24;98647.41;5311957;26;20317;-91
2023/08/30 06:33:44;;;;;;;0.62;0.62;;;;;;;19.67;60.24;98655.75;5312758;26;20056;-91
2023/08/30 06:36:11;;;;;;;0.57;0.45;;;;;;;19.77;60.24;98655.75;5317516;26;20052;-92
2023/08/30 06:38:36;;;;;;;0.60;0.52;;;;;;;19.84;60.25;98660.37;5312445;26;20078;-91
2023/08/30 06:41:02;;;;;;;2.40;0.77;;;;;;;19.90;60.26;98653.72;5311781;26;20056;-91
2023/08/30 06:43:27;;;;;;;1.58;1.45;;;;;;;20.01;60.25;98647.50;5330759;26;20442;-92
2023/08/30 06:45:53;;;;;;;0.20;0.20;;;;;;;19.95;60.26;98648.03;5313022;26;20075;-91
2023/08/30 06:48:18;;;;;;;1.92;1.30;;;;;;;19.93;60.25;98649.00;5312274;26;20064;-92
2023/08/30 06:50:44;;;;;;;0.47;0.47;;;;;;;20.37;60.28;98648.69;5311705;26;20403;-91
2023/08/30 06:53:09;;;;;;;2.72;1.02;;;;;;;20.27;60.27;98653.09;5311414;26;20464;-91
2023/08/30 06:55:36;;;;;;;0.10;0.10;;;;;;;20.15;60.26;98650.59;5311557;26;20120;-91
2023/08/30 06:58:02;;;;;;;1.60;1.50;;;;;;;20.05;60.26;98649.72;5314829;26;20094;-92
2023/08/30 07:00:28;;;;;;;0.37;0.37;;;;;;;20.20;60.27;98652.81;5311944;26;20485;-92
2023/08/30 07:02:53;;;;;;;1.00;0.75;;;;;;;20.39;60.28;98641.44;5311670;26;20048;-92
2023/08/30 07:05:19;;;;;;;3.47;0.73;;;;;;;20.46;60.28;98643.44;5311573;26;20369;-92
2023/08/30 07:07:44;;;;;;;1.20;1.10;;;;;;;20.46;60.28;98643.44;5311688;26;20104;-92
2023/08/30 07:10:10;;;;;;;2.58;0.60;;;;;;;20.33;60.28;98652.56;5311622;26;20052;-92
2023/08/30 07:12:35;;;;;;;0.37;0.37;;;;;;;20.37;60.28;98654.81;5311578;26;20055;-92
2023/08/30 07:15:03;;;;;;;0.22;0.22;;;;;;;20.40;60.29;98658.97;5311657;26;20108;-91
2023/08/30 07:17:28;;;;;;;0.35;0.30;;;;;;;20.33;60.28;98660.47;5314919;26;20209;-91
2023/08/30 07:19:54;;;;;;;13.20;1.60;;;;;;;20.44;60.29;98660.41;5311450;26;20052;-91
2023/08/30 07:22:19;;;;;;;5.90;1.12;;;;;;;20.56;60.29;98661.94;5311083;26;20412;-91
2023/08/30 07:24:45;;;;;;;0.68;0.68;;;;;;;20.61;60.29;98653.59;5329807;26;20086;-92
2023/08/30 07:27:12;;;;;;;1.00;1.00;;;;;;;20.30;60.27;98666.87;5311351;26;20111;-91
2023/08/30 07:29:39;;;;;;;1.08;0.80;;;;;;;20.29;60.28;98667.84;5312090;26;20070;-91
2023/08/30 07:32:05;;;;;;;0.82;0.73;;;;;;;20.18;60.28;98673.25;5311917;26;20131;-92
2023/08/30 07:34:31;;;;;;;0.30;0.30;;;;;;;20.30;60.27;98677.44;5311865;26;20063;-92
2023/08/30 07:36:56;;;;;;;1.37;0.77;;;;;;;20.32;60.28;98678.16;5311990;26;20116;-92
2023/08/30 07:39:21;;;;;;;1.15;1.02;;;;;;;20.41;60.28;98673.91;5312022;26;20056;-92
2023/08/30 07:41:47;;;;;;;5.37;0.90;;;;;;;20.62;60.29;98674.63;5312548;26;20063;-92
2023/08/30 07:44:12;;;;;;;2.40;1.87;;;;;;;20.72;60.30;98678.09;5331574;26;20063;-92
2023/08/30 07:46:38;;;;;;;0.40;0.40;;;;;;;20.62;60.29;98677.25;5332437;26;20110;-91
2023/08/30 07:49:03;;;;;;;3.70;1.75;;;;;;;20.68;60.29;98681.97;5314957;26;20074;-92
2023/08/30 07:51:29;;;;;;;0.62;0.62;;;;;;;20.52;60.28;98687.81;5320826;26;20107;-92
2023/08/30 07:53:54;;;;;;;0.25;0.25;;;;;;;20.49;60.29;98701.31;5312620;26;20090;-92
2023/08/30 07:56:19;;;;;;;0.30;0.28;;;;;;;20.44;60.28;98700.88;5311302;26;20052;-91
2023/08/30 07:58:45;;;;;;;0.20;0.20;;;;;;;20.37;60.28;98696.25;5329821;26;20118;-92
2023/08/30 08:01:10;;;;;;;0.00;0.00;;;;;;;20.37;60.28;98696.25;5311201;26;20047;-92
2023/08/30 08:03:36;;;;;;;0.00;0.00;;;;;;;20.53;60.28;98692.13;5311365;26;20150;-91
2023/08/30 08:06:01;;;;;;;0.30;0.30;;;;;;;20.58;60.29;98697.00;5311345;26;20128;-92
2023/08/30 08:08:27;;;;;;;0.88;0.88;;;;;;;20.75;60.30;98698.13;5329678;26;20405;-92
2023/08/30 08:10:52;;;;;;;0.28;0.28;;;;;;;20.70;60.29;98706.47;5311322;26;20148;-91
2023/08/30 08:13:17;;;;;;;0.20;0.20;;;;;;;20.73;60.30;98708.00;5313977;26;20124;-92
2023/08/30 08:15:44;;;;;;;0.37;0.37;;;;;;;20.89;60.31;98708.28;5311331;26;20088;-92
2023/08/30 08:18:09;;;;;;;0.10;0.10;;;;;;;21.02;60.30;98702.69;5311494;26;20643;-92
2023/08/30 08:20:36;;;;;;;2.78;1.17;;;;;;;20.94;60.32;98703.41;5311182;26;20405;-91
2023/08/30 08:23:02;;;;;;;0.43;0.43;;;;;;;20.82;60.31;98701.91;5311720;26;20117;-92
2023/08/30 08:25:27;;;;;;;1.27;1.27;;;;;;;21.00;60.31;98709.94;5311052;26;20064;-92
2023/08/30 08:27:53;;;;;;;0.95;0.95;;;;;;;21.22;60.32;98712.28;5329772;26;20089;-92
2023/08/30 08:30:20;;;;;;;1.02;0.52;;;;;;;21.25;60.32;98713.84;5311350;26;20140;-92
2023/08/30 08:32:45;;;;;;;0.95;0.88;;;;;;;21.30;60.33;98714.28;5313499;26;20059;-92
2023/08/30 08:35:11;;;;;;;1.98;1.30;;;;;;;21.32;60.33;98705.22;5311553;26;20083;-91
2023/08/30 08:37:36;;;;;;;1.17;0.40;;;;;;;21.17;60.32;98700.47;5311444;26;20056;-92
2023/08/30 08:40:08;;;;;;;1.60;1.50;;;;;;;21.10;60.32;98698.41;5311302;26;20047;-92
2023/08/30 08:42:34;;;;;;;0.62;0.62;;;;;;;21.19;60.33;98703.81;5313247;26;20662;-91
2023/08/30 08:44:59;;;;;;;0.80;0.52;;;;;;;21.32;60.33;98702.56;5311289;26;20117;-91
2023/08/30 08:47:25;;;;;;;0.75;0.75;;;;;;;21.33;60.34;98712.19;5311341;26;20099;-93
2023/08/30 08:49:50;;;;;;;0.70;0.70;;;;;;;21.50;60.35;98705.31;5311654;26;20043;-92
2023/08/30 08:52:16;;;;;;;3.15;1.17;;;;;;;21.68;60.35;98711.53;5311240;26;20075;-92
2023/08/30 08:54:41;;;;;;;0.43;0.30;;;;;;;21.73;60.35;98711.09;5314099;26;20326;-92
2023/08/30 08:57:07;;;;;;;0.10;0.10;;;;;;;21.64;60.36;98715.44;5311130;26;20056;-92
2023/08/30 08:59:32;;;;;;;2.62;0.47;;;;;;;21.61;60.35;98710.44;5329512;26;20058;-90
2023/08/30 09:01:59;;;;;;;6.82;1.42;;;;;;;21.70;60.35;98725.44;5311158;26;20119;-91
2023/08/30 09:04:25;;;;;;;0.25;0.25;;;;;;;21.56;60.34;98725.94;5311510;26;20085;-92
2023/08/30 09:06:50;;;;;;;1.45;0.98;;;;;;;21.74;60.35;98723.34;5311070;26;20096;-92
2023/08/30 09:09:16;;;;;;;0.40;0.30;;;;;;;21.61;60.34;98726.34;5310885;26;20119;-91
2023/08/30 09:11:41;;;;;;;0.77;0.43;;;;;;;21.61;60.34;98720.19;5311593;26;20432;-92
2023/08/30 09:14:08;;;;;;;2.70;0.73;;;;;;;21.60;60.34;98719.38;5329588;26;20106;-92
2023/08/30 09:16:34;;;;;;;1.33;0.70;;;;;;;21.51;60.34;98728.16;5311292;26;20056;-91
2023/08/30 09:19:00;;;;;;;4.65;1.37;;;;;;;21.33;60.34;98738.66;5311608;26;20157;-92
2023/08/30 09:21:26;;;;;;;0.60;0.50;;;;;;;21.31;60.32;98734.47;5330042;26;20067;-92
2023/08/30 09:23:59;;;;;;;0.70;0.45;;;;;;;21.43;60.33;98735.97;5312839;26;20082;-92
2023/08/30 09:26:25;;;;;;;0.43;0.37;;;;;;;21.74;60.35;98736.59;5350614;26;20807;-92
2023/08/30 09:28:50;;;;;;;0.10;0.10;;;;;;;21.73;60.35;98734.94;5314520;26;20056;-91
2023/08/30 09:31:22;;;;;;;1.20;0.32;;;;;;;22.05;60.37;98738.06;5311116;26;20110;-92
2023/08/30 09:33:50;;;;;;;1.00;0.98;;;;;;;22.05;60.37;98743.34;5311766;26;20056;-92
2023/08/30 09:36:16;;;;;;;1.95;1.27;;;;;;;22.31;60.37;98754.12;5311835;26;20108;-92
2023/08/30 09:38:48;;;;;;;0.00;0.00;;;;;;;22.50;60.38;98741.75;5310887;26;20052;-92
2023/08/30 09:41:13;;;;;;;0.20;0.20;;;;;;;22.36;60.38;98743.91;5310763;26;20060;-91
2023/08/30 09:43:42;;;;;;;0.37;0.37;;;;;;;22.35;60.39;98749.34;5310623;26;20093;-92
2023/08/30 09:46:07;;;;;;;0.40;0.35;;;;;;;22.33;60.39;98749.50;5311739;26;20060;-92
2023/08/30 09:48:33;;;;;;;1.02;0.88;;;;;;;22.49;60.40;98743.56;5312712;26;20078;-92
2023/08/30 09:50:59;;;;;;;0.37;0.37;;;;;;;22.28;60.38;98757.06;5314593;26;20059;-91
2023/08/30 09:53:26;;;;;;;0.80;0.55;;;;;;;22.30;60.38;98749.78;5312306;26;20078;-91
2023/08/30 09:55:52;;;;;;;0.68;0.55;;;;;;;22.31;60.38;98753.28;5312262;26;20056;-92
2023/08/30 09:58:18;;;;;;;0.20;0.20;;;;;;;22.46;60.39;98753.59;5311885;26;20066;-92
2023/08/30 10:00:43;;;;;;;1.15;0.77;;;;;;;22.56;60.39;98749.91;5312214;26;20068;-91
2023/08/30 10:03:08;;;;;;;0.40;0.40;;;;;;;22.62;60.39;98754.62;5313088;26;20107;-92
2023/08/30 10:05:35;;;;;;;0.20;0.20;;;;;;;22.64;60.39;98752.66;5312964;26;20062;-91
2023/08/30 10:08:00;;;;;;;0.20;0.20;;;;;;;22.59;60.40;98760.22;5312195;26;20048;-92
2023/08/30 10:10:26;;;;;;;0.22;0.22;;;;;;;22.52;60.39;98763.63;5314731;26;20052;-92
2023/08/30 10:12:51;;;;;;;2.72;0.82;;;;;;;22.62;60.40;98767.06;5311835;26;20064;-92
2023/08/30 10:15:16;;;;;;;0.43;0.43;;;;;;;22.61;60.40;98763.56;5312132;26;20101;-92
2023/08/30 10:17:46;;;;;;;0.82;0.82;;;;;;;22.59;60.40;98754.94;5311597;26;20040;-92
2023/08/30 10:20:14;;;;;;;0.22;0.22;;;;;;;22.36;60.39;98759.81;5312275;26;20083;-92
2023/08/30 10:22:40;;;;;;;0.13;0.13;;;;;;;22.42;60.40;98763.66;5312348;26;20124;-92
2023/08/30 10:25:11;;;;;;;0.80;0.75;;;;;;;22.55;60.39;98753.56;5311569;26;20056;-92
2023/08/30 10:27:37;;;;;;;0.10;0.10;;;;;;;22.44;60.39;98750.25;5311889;26;20067;-92
2023/08/30 10:30:07;;;;;;;0.10;0.10;;;;;;;22.59;60.40;98738.19;5316014;26;20059;-93
2023/08/30 10:32:37;;;;;;;0.05;0.05;;;;;;;22.51;60.39;98746.06;5347537;26;20024;-92
2023/08/30 10:35:03;;;;;;;;;;;;;;;22.36;60.39;98751.84;5319833;26;20066;-92
2023/08/30 10:37:29;;;;;;;1.92;0.35;;;;;;;22.24;60.37;98761.00;5330733;26;19963;-91
2023/08/30 10:39:59;;;;;;;0.62;0.52;;;;;;;22.27;60.38;98759.88;5311903;26;20083;-92
2023/08/30 10:42:25;;;;;;;0.00;0.00;;;;;;;22.23;60.38;98764.59;5330477;26;20063;-92
2023/08/30 10:44:51;;;;;;;4.47;1.23;;;;;;;22.45;60.39;98759.88;5311514;26;20449;-92
2023/08/30 10:47:23;;;;;;;0.60;0.37;;;;;;;22.66;60.40;98755.97;5312130;26;20336;-92
2023/08/30 10:49:49;;;;;;;1.50;1.12;;;;;;;22.86;60.41;98756.72;5312255;26;20138;-92
2023/08/30 10:52:14;;;;;;;0.00;0.00;;;;;;;22.92;60.42;98749.97;5311749;26;20067;-92
2023/08/30 10:54:40;;;;;;;3.62;2.47;;;;;;;22.98;60.42;98733.47;5311682;26;20103;-92
2023/08/30 10:57:08;;;;;;;1.10;0.90;;;;;;;23.24;60.43;98738.81;5310870;26;21222;-92
2023/08/30 10:59:34;;;;;;;1.75;0.88;;;;;;;23.39;60.44;98737.25;5312169;26;20115;-91
2023/08/30 11:02:01;;;;;;;0.10;0.10;;;;;;;23.67;60.46;98731.84;5311305;26;20102;-92
2023/08/30 11:04:26;;;;;;;0.28;0.28;;;;;;;23.95;60.47;98735.16;5314065;26;20115;-92
2023/08/30 11:06:52;;;;;;;0.93;0.93;;;;;;;24.13;60.48;98731.44;5311237;26;20076;-92
2023/08/30 11:09:23;;;;;;;0.10;0.10;;;;;;;24.15;60.48;98733.94;5311608;26;20416;-92
2023/08/30 11:11:50;;;;;;;0.75;0.47;;;;;;;24.32;60.49;98726.84;5312115;26;20485;-92
2023/08/30 11:14:16;;;;;;;0.22;0.22;;;;;;;24.26;60.49;98728.31;5311553;26;20712;-91
2023/08/30 11:16:41;;;;;;;0.00;0.00;;;;;;;24.10;60.47;98731.72;5310751;26;20106;-89
2023/08/30 11:19:08;;;;;;;0.10;0.10;;;;;;;24.23;60.49;98730.47;5312013;26;20068;-91
2023/08/30 11:21:34;;;;;;;0.10;0.10;;;;;;;24.46;60.50;98723.59;5309494;26;20081;-89
2023/08/30 11:24:00;;;;;;;0.10;0.10;;;;;;;24.39;60.49;98723.41;5311623;26;20123;-90
2023/08/30 11:26:25;;;;;;;0.40;0.35;;;;;;;24.46;60.50;98719.09;5312396;26;20055;-92
2023/08/30 11:28:52;;;;;;;0.55;0.55;;;;;;;24.43;60.49;98723.91;5311492;26;20068;-91
2023/08/30 11:31:27;;;;;;;0.13;0.13;;;;;;;24.04;60.47;98724.41;5330778;26;20131;-90
2023/08/30 11:33:56;;;;;;;0.20;0.20;;;;;;;24.05;60.47;98725.22;5313251;26;20709;-90
2023/08/30 11:36:23;;;;;;;0.20;0.20;;;;;;;23.67;60.46;98732.69;5312239;26;20056;-89
2023/08/30 11:38:54;;;;;;;0.73;0.57;;;;;;;23.70;60.46;98734.19;5312357;26;20083;-91
2023/08/30 11:41:20;;;;;;;0.30;0.15;;;;;;;23.69;60.46;98735.19;5312996;26;20137;-91
2023/08/30 11:43:45;;;;;;;0.43;0.43;;;;;;;23.68;60.46;98734.34;5312364;26;20059;-91
2023/08/30 11:46:12;;;;;;;0.20;0.20;;;;;;;23.80;60.46;98738.41;5333371;26;20048;-92
2023/08/30 11:48:38;;;;;;;0.20;0.13;;;;;;;23.69;60.46;98733.34;5312435;26;20120;-92
2023/08/30 11:51:04;;;;;;;0.10;0.10;;;;;;;23.69;60.46;98746.66;5311964;26;20113;-91
2023/08/30 11:53:29;;;;;;;1.45;0.62;;;;;;;23.65;60.45;98742.59;5312336;26;20147;-92